sensor_id;sensor_type;location;lat;lon;timestamp;temperature;humidity
42261;DHT22;27926;48.062;7.474;2023-03-13T00:00:02;11.10;99.90
42261;DHT22;27926;48.062;7.474;2023-03-13T00:02:29;11.20;99.90
42261;DHT22;27926;48.062;7.474;2023-03-13T00:04:53;11.50;99.90
42261;DHT22;27926;48.062;7.474;2023-03-13T00:07:18;11.10;99.90
42261;DHT22;27926;48.062;7.474;2023-03-13T00:09:42;11.20;99.90
42261;DHT22;27926;48.062;7.474;2023-03-13T00:12:07;11.20;99.90
42261;DHT22;27926;48.062;7.474;2023-03-13T00:14:31;11.10;99.90
42261;DHT22;27926;48.062;7.474;2023-03-13T00:16:56;11.20;99.90
42261;DHT22;27926;48.062;7.474;2023-03-13T00:19:20;11.20;99.90
42261;DHT22;27926;48.062;7.474;2023-03-13T00:21:45;11.50;99.90
42261;DHT22;27926;48.062;7.474;2023-03-13T00:24:10;11.30;99.90
42261;DHT22;27926;48.062;7.474;2023-03-13T00:26:34;11.40;99.90
42261;DHT22;27926;48.062;7.474;2023-03-13T00:28:59;11.30;99.90
42261;DHT22;27926;48.062;7.474;2023-03-13T00:31:24;11.30;99.90
42261;DHT22;27926;48.062;7.474;2023-03-13T00:33:50;11.40;99.90
42261;DHT22;27926;48.062;7.474;2023-03-13T00:36:16;11.40;99.90
42261;DHT22;27926;48.062;7.474;2023-03-13T00:38:41;11.50;99.90
42261;DHT22;27926;48.062;7.474;2023-03-13T00:41:07;11.50;99.90
42261;DHT22;27926;48.062;7.474;2023-03-13T00:43:32;11.50;99.90
42261;DHT22;27926;48.062;7.474;2023-03-13T00:45:57;11.50;99.90
42261;DHT22;27926;48.062;7.474;2023-03-13T00:48:22;11.50;99.90
42261;DHT22;27926;48.062;7.474;2023-03-13T00:50:46;11.60;99.90
42261;DHT22;27926;48.062;7.474;2023-03-13T00:53:11;11.60;99.90
42261;DHT22;27926;48.062;7.474;2023-03-13T00:55:35;11.60;99.90
42261;DHT22;27926;48.062;7.474;2023-03-13T00:58:00;11.60;99.90
42261;DHT22;27926;48.062;7.474;2023-03-13T01:00:24;11.60;99.90
42261;DHT22;27926;48.062;7.474;2023-03-13T01:02:49;11.60;99.90
42261;DHT22;27926;48.062;7.474;2023-03-13T01:05:16;11.60;99.90
42261;DHT22;27926;48.062;7.474;2023-03-13T01:07:40;11.60;99.90
42261;DHT22;27926;48.062;7.474;2023-03-13T01:10:05;11.60;99.90
42261;DHT22;27926;48.062;7.474;2023-03-13T01:12:30;11.60;99.90
42261;DHT22;27926;48.062;7.474;2023-03-13T01:14:54;11.60;99.90
42261;DHT22;27926;48.062;7.474;2023-03-13T01:17:19;11.60;99.90
42261;DHT22;27926;48.062;7.474;2023-03-13T01:19:44;11.60;99.90
42261;DHT22;27926;48.062;7.474;2023-03-13T01:22:08;11.70;99.90
42261;DHT22;27926;48.062;7.474;2023-03-13T01:24:35;11.70;99.90
42261;DHT22;27926;48.062;7.474;2023-03-13T01:27:00;11.80;99.90
42261;DHT22;27926;48.062;7.474;2023-03-13T01:29:24;11.70;99.90
42261;DHT22;27926;48.062;7.474;2023-03-13T01:31:49;11.70;99.90
42261;DHT22;27926;48.062;7.474;2023-03-13T01:34:13;11.70;99.90
42261;DHT22;27926;48.062;7.474;2023-03-13T01:36:38;11.70;99.90
42261;DHT22;27926;48.062;7.474;2023-03-13T01:39:02;11.70;99.90
42261;DHT22;27926;48.062;7.474;2023-03-13T01:41:28;11.70;99.90
42261;DHT22;27926;48.062;7.474;2023-03-13T01:43:52;11.70;99.90
42261;DHT22;27926;48.062;7.474;2023-03-13T01:46:22;11.90;99.90
42261;DHT22;27926;48.062;7.474;2023-03-13T01:48:50;11.60;99.90
42261;DHT22;27926;48.062;7.474;2023-03-13T01:51:20;11.60;99.90
42261;DHT22;27926;48.062;7.474;2023-03-13T01:53:46;11.60;99.90
42261;DHT22;27926;48.062;7.474;2023-03-13T01:56:16;11.60;99.90
42261;DHT22;27926;48.062;7.474;2023-03-13T01:58:41;11.70;99.90
42261;DHT22;27926;48.062;7.474;2023-03-13T02:01:06;11.70;99.90
42261;DHT22;27926;48.062;7.474;2023-03-13T02:03:31;11.60;99.90
42261;DHT22;27926;48.062;7.474;2023-03-13T02:05:56;11.60;99.90
42261;DHT22;27926;48.062;7.474;2023-03-13T02:08:24;11.80;99.90
42261;DHT22;27926;48.062;7.474;2023-03-13T02:10:50;11.50;99.90
42261;DHT22;27926;48.062;7.474;2023-03-13T02:13:16;11.50;99.90
42261;DHT22;27926;48.062;7.474;2023-03-13T02:15:41;11.60;99.90
42261;DHT22;27926;48.062;7.474;2023-03-13T02:18:05;11.50;99.90
42261;DHT22;27926;48.062;7.474;2023-03-13T02:20:30;11.70;99.90
42261;DHT22;27926;48.062;7.474;2023-03-13T02:22:59;11.40;99.90
42261;DHT22;27926;48.062;7.474;2023-03-13T02:28:02;11.40;99.90
42261;DHT22;27926;48.062;7.474;2023-03-13T02:30:28;11.40;99.90
42261;DHT22;27926;48.062;7.474;2023-03-13T02:32:52;11.50;99.90
42261;DHT22;27926;48.062;7.474;2023-03-13T02:35:18;11.50;99.90
42261;DHT22;27926;48.062;7.474;2023-03-13T02:37:43;11.60;99.90
42261;DHT22;27926;48.062;7.474;2023-03-13T02:40:10;11.60;99.90
42261;DHT22;27926;48.062;7.474;2023-03-13T02:42:40;11.60;99.90
42261;DHT22;27926;48.062;7.474;2023-03-13T02:45:05;11.60;99.90
42261;DHT22;27926;48.062;7.474;2023-03-13T02:47:30;9.10;99.90
42261;DHT22;27926;48.062;7.474;2023-03-13T02:49:54;11.70;99.90
42261;DHT22;27926;48.062;7.474;2023-03-13T02:52:20;11.70;99.90
42261;DHT22;27926;48.062;7.474;2023-03-13T02:54:49;11.70;99.90
42261;DHT22;27926;48.062;7.474;2023-03-13T02:57:14;11.70;99.90
42261;DHT22;27926;48.062;7.474;2023-03-13T02:59:39;11.70;99.90
42261;DHT22;27926;48.062;7.474;2023-03-13T03:02:03;11.70;99.90
42261;DHT22;27926;48.062;7.474;2023-03-13T03:04:28;11.70;99.90
42261;DHT22;27926;48.062;7.474;2023-03-13T03:06:52;11.80;99.90
42261;DHT22;27926;48.062;7.474;2023-03-13T03:09:17;11.70;99.90
42261;DHT22;27926;48.062;7.474;2023-03-13T03:11:43;11.80;99.90
42261;DHT22;27926;48.062;7.474;2023-03-13T03:14:08;11.80;99.90
42261;DHT22;27926;48.062;7.474;2023-03-13T03:16:33;11.80;99.90
42261;DHT22;27926;48.062;7.474;2023-03-13T03:18:57;11.80;99.90
42261;DHT22;27926;48.062;7.474;2023-03-13T03:21:22;11.70;99.90
42261;DHT22;27926;48.062;7.474;2023-03-13T03:23:47;11.80;99.90
42261;DHT22;27926;48.062;7.474;2023-03-13T03:26:11;11.80;99.90
42261;DHT22;27926;48.062;7.474;2023-03-13T03:28:36;11.80;99.90
42261;DHT22;27926;48.062;7.474;2023-03-13T03:31:04;11.80;99.90
42261;DHT22;27926;48.062;7.474;2023-03-13T03:33:29;11.80;99.90
42261;DHT22;27926;48.062;7.474;2023-03-13T03:35:57;11.80;99.90
42261;DHT22;27926;48.062;7.474;2023-03-13T03:38:22;11.80;99.90
42261;DHT22;27926;48.062;7.474;2023-03-13T03:40:46;11.80;99.90
42261;DHT22;27926;48.062;7.474;2023-03-13T03:43:11;11.80;99.90
42261;DHT22;27926;48.062;7.474;2023-03-13T03:45:35;11.80;99.90
42261;DHT22;27926;48.062;7.474;2023-03-13T03:48:00;11.80;99.90
42261;DHT22;27926;48.062;7.474;2023-03-13T03:50:25;11.70;99.90
42261;DHT22;27926;48.062;7.474;2023-03-13T03:52:50;11.70;99.90
42261;DHT22;27926;48.062;7.474;2023-03-13T03:55:14;11.70;99.90
42261;DHT22;27926;48.062;7.474;2023-03-13T03:57:39;11.70;99.90
42261;DHT22;27926;48.062;7.474;2023-03-13T04:00:03;11.70;99.90
42261;DHT22;27926;48.062;7.474;2023-03-13T04:02:30;11.70;99.90
42261;DHT22;27926;48.062;7.474;2023-03-13T04:04:58;11.60;99.90
42261;DHT22;27926;48.062;7.474;2023-03-13T04:07:22;11.70;99.90
42261;DHT22;27926;48.062;7.474;2023-03-13T04:09:47;11.60;99.90
42261;DHT22;27926;48.062;7.474;2023-03-13T04:12:12;11.60;99.90
42261;DHT22;27926;48.062;7.474;2023-03-13T04:14:36;11.70;99.90
42261;DHT22;27926;48.062;7.474;2023-03-13T04:17:01;11.70;99.90
42261;DHT22;27926;48.062;7.474;2023-03-13T04:19:25;11.90;99.90
42261;DHT22;27926;48.062;7.474;2023-03-13T04:21:50;12.00;99.90
42261;DHT22;27926;48.062;7.474;2023-03-13T04:24:14;11.60;99.90
42261;DHT22;27926;48.062;7.474;2023-03-13T04:26:39;11.50;99.90
42261;DHT22;27926;48.062;7.474;2023-03-13T04:29:03;11.50;99.90
42261;DHT22;27926;48.062;7.474;2023-03-13T04:31:29;11.60;99.90
42261;DHT22;27926;48.062;7.474;2023-03-13T04:33:53;11.60;99.90
42261;DHT22;27926;48.062;7.474;2023-03-13T04:36:18;11.60;99.90
42261;DHT22;27926;48.062;7.474;2023-03-13T04:38:42;11.70;99.90
42261;DHT22;27926;48.062;7.474;2023-03-13T04:41:07;11.60;99.90
42261;DHT22;27926;48.062;7.474;2023-03-13T04:43:31;11.50;99.90
42261;DHT22;27926;48.062;7.474;2023-03-13T04:45:56;11.40;99.90
42261;DHT22;27926;48.062;7.474;2023-03-13T04:48:21;11.40;99.90
42261;DHT22;27926;48.062;7.474;2023-03-13T04:50:46;11.40;99.90
42261;DHT22;27926;48.062;7.474;2023-03-13T04:53:11;11.40;99.90
42261;DHT22;27926;48.062;7.474;2023-03-13T04:55:36;11.80;99.90
42261;DHT22;27926;48.062;7.474;2023-03-13T04:58:00;11.40;99.90
42261;DHT22;27926;48.062;7.474;2023-03-13T05:00:25;11.40;99.90
42261;DHT22;27926;48.062;7.474;2023-03-13T05:02:49;11.40;99.90
42261;DHT22;27926;48.062;7.474;2023-03-13T05:05:14;11.40;99.90
42261;DHT22;27926;48.062;7.474;2023-03-13T05:07:38;11.40;99.90
42261;DHT22;27926;48.062;7.474;2023-03-13T05:10:02;11.40;99.90
42261;DHT22;27926;48.062;7.474;2023-03-13T05:12:27;11.50;99.90
42261;DHT22;27926;48.062;7.474;2023-03-13T05:14:51;11.60;99.90
42261;DHT22;27926;48.062;7.474;2023-03-13T05:17:16;11.50;99.90
42261;DHT22;27926;48.062;7.474;2023-03-13T05:19:41;11.50;99.90
42261;DHT22;27926;48.062;7.474;2023-03-13T05:22:05;11.50;99.90
42261;DHT22;27926;48.062;7.474;2023-03-13T05:24:30;11.60;99.90
42261;DHT22;27926;48.062;7.474;2023-03-13T05:26:54;11.60;99.90
42261;DHT22;27926;48.062;7.474;2023-03-13T05:29:19;11.70;99.90
42261;DHT22;27926;48.062;7.474;2023-03-13T05:31:43;11.70;99.90
42261;DHT22;27926;48.062;7.474;2023-03-13T05:34:08;11.70;99.90
42261;DHT22;27926;48.062;7.474;2023-03-13T05:36:32;11.70;99.90
42261;DHT22;27926;48.062;7.474;2023-03-13T05:38:57;11.70;99.90
42261;DHT22;27926;48.062;7.474;2023-03-13T05:41:21;11.70;99.90
42261;DHT22;27926;48.062;7.474;2023-03-13T05:43:46;11.70;99.90
42261;DHT22;27926;48.062;7.474;2023-03-13T05:46:11;11.70;99.90
42261;DHT22;27926;48.062;7.474;2023-03-13T05:48:35;11.70;99.90
42261;DHT22;27926;48.062;7.474;2023-03-13T05:51:00;11.70;99.90
42261;DHT22;27926;48.062;7.474;2023-03-13T05:53:27;11.30;99.90
42261;DHT22;27926;48.062;7.474;2023-03-13T05:55:52;11.70;99.90
42261;DHT22;27926;48.062;7.474;2023-03-13T05:58:16;11.70;99.90
42261;DHT22;27926;48.062;7.474;2023-03-13T06:00:41;11.70;99.90
42261;DHT22;27926;48.062;7.474;2023-03-13T06:03:06;11.70;99.90
42261;DHT22;27926;48.062;7.474;2023-03-13T06:05:31;11.70;99.90
42261;DHT22;27926;48.062;7.474;2023-03-13T06:07:55;11.70;99.90
42261;DHT22;27926;48.062;7.474;2023-03-13T06:10:20;11.70;99.90
42261;DHT22;27926;48.062;7.474;2023-03-13T06:12:50;11.70;99.90
42261;DHT22;27926;48.062;7.474;2023-03-13T06:15:15;11.70;99.90
42261;DHT22;27926;48.062;7.474;2023-03-13T06:17:39;11.80;99.90
42261;DHT22;27926;48.062;7.474;2023-03-13T06:20:04;11.80;99.90
42261;DHT22;27926;48.062;7.474;2023-03-13T06:22:29;11.80;99.90
42261;DHT22;27926;48.062;7.474;2023-03-13T06:24:56;11.80;99.90
42261;DHT22;27926;48.062;7.474;2023-03-13T06:27:21;11.90;99.90
42261;DHT22;27926;48.062;7.474;2023-03-13T06:29:46;11.90;99.90
42261;DHT22;27926;48.062;7.474;2023-03-13T06:32:10;11.90;99.90
42261;DHT22;27926;48.062;7.474;2023-03-13T06:34:35;12.00;99.90
42261;DHT22;27926;48.062;7.474;2023-03-13T06:36:59;12.00;99.90
42261;DHT22;27926;48.062;7.474;2023-03-13T06:39:24;12.10;99.90
42261;DHT22;27926;48.062;7.474;2023-03-13T06:41:48;12.20;99.90
42261;DHT22;27926;48.062;7.474;2023-03-13T06:44:13;12.20;99.90
42261;DHT22;27926;48.062;7.474;2023-03-13T06:46:37;12.30;99.90
42261;DHT22;27926;48.062;7.474;2023-03-13T06:49:02;12.40;99.90
42261;DHT22;27926;48.062;7.474;2023-03-13T06:51:29;12.50;99.90
42261;DHT22;27926;48.062;7.474;2023-03-13T06:53:53;12.60;99.90
42261;DHT22;27926;48.062;7.474;2023-03-13T06:56:18;12.60;99.90
42261;DHT22;27926;48.062;7.474;2023-03-13T06:58:48;12.70;99.90
42261;DHT22;27926;48.062;7.474;2023-03-13T07:01:13;12.70;99.90
42261;DHT22;27926;48.062;7.474;2023-03-13T07:03:37;12.80;99.90
42261;DHT22;27926;48.062;7.474;2023-03-13T07:06:03;12.80;99.90
42261;DHT22;27926;48.062;7.474;2023-03-13T07:08:27;12.90;99.90
42261;DHT22;27926;48.062;7.474;2023-03-13T07:10:52;13.00;99.90
42261;DHT22;27926;48.062;7.474;2023-03-13T07:13:17;13.00;99.90
42261;DHT22;27926;48.062;7.474;2023-03-13T07:15:44;13.10;99.90
42261;DHT22;27926;48.062;7.474;2023-03-13T07:18:09;13.10;99.90
42261;DHT22;27926;48.062;7.474;2023-03-13T07:20:33;13.20;99.90
42261;DHT22;27926;48.062;7.474;2023-03-13T07:22:58;13.20;99.90
42261;DHT22;27926;48.062;7.474;2023-03-13T07:25:22;13.30;99.90
42261;DHT22;27926;48.062;7.474;2023-03-13T07:27:49;13.30;99.90
42261;DHT22;27926;48.062;7.474;2023-03-13T07:30:15;13.40;99.90
42261;DHT22;27926;48.062;7.474;2023-03-13T07:32:39;13.50;99.90
42261;DHT22;27926;48.062;7.474;2023-03-13T07:35:04;13.60;99.90
42261;DHT22;27926;48.062;7.474;2023-03-13T07:37:28;13.70;99.90
42261;DHT22;27926;48.062;7.474;2023-03-13T07:39:53;13.70;99.90
42261;DHT22;27926;48.062;7.474;2023-03-13T07:42:17;13.80;99.90
42261;DHT22;27926;48.062;7.474;2023-03-13T07:44:42;13.80;99.90
42261;DHT22;27926;48.062;7.474;2023-03-13T07:47:06;13.80;99.90
42261;DHT22;27926;48.062;7.474;2023-03-13T07:49:31;13.90;99.90
42261;DHT22;27926;48.062;7.474;2023-03-13T07:51:57;13.90;99.90
42261;DHT22;27926;48.062;7.474;2023-03-13T07:54:21;13.90;99.90
42261;DHT22;27926;48.062;7.474;2023-03-13T07:56:46;14.00;99.90
42261;DHT22;27926;48.062;7.474;2023-03-13T07:59:10;13.90;99.90
42261;DHT22;27926;48.062;7.474;2023-03-13T08:01:35;14.00;99.90
42261;DHT22;27926;48.062;7.474;2023-03-13T08:03:59;14.00;99.90
42261;DHT22;27926;48.062;7.474;2023-03-13T08:06:24;14.00;99.90
42261;DHT22;27926;48.062;7.474;2023-03-13T08:08:49;14.10;99.90
42261;DHT22;27926;48.062;7.474;2023-03-13T08:11:16;14.20;99.90
42261;DHT22;27926;48.062;7.474;2023-03-13T08:13:41;14.40;99.90
42261;DHT22;27926;48.062;7.474;2023-03-13T08:18:34;15.10;99.90
42261;DHT22;27926;48.062;7.474;2023-03-13T08:21:32;15.30;99.90
42261;DHT22;27926;48.062;7.474;2023-03-13T08:23:56;15.50;99.90
42261;DHT22;27926;48.062;7.474;2023-03-13T08:26:22;15.50;99.90
42261;DHT22;27926;48.062;7.474;2023-03-13T08:28:47;15.50;99.90
42261;DHT22;27926;48.062;7.474;2023-03-13T08:31:16;15.80;99.90
42261;DHT22;27926;48.062;7.474;2023-03-13T08:33:41;16.00;99.90
42261;DHT22;27926;48.062;7.474;2023-03-13T08:36:25;16.30;99.90
42261;DHT22;27926;48.062;7.474;2023-03-13T08:38:54;16.40;99.90
42261;DHT22;27926;48.062;7.474;2023-03-13T08:41:23;16.60;99.90
42261;DHT22;27926;48.062;7.474;2023-03-13T08:43:48;16.70;99.90
42261;DHT22;27926;48.062;7.474;2023-03-13T08:46:13;16.80;99.90
42261;DHT22;27926;48.062;7.474;2023-03-13T08:48:37;17.00;99.90
42261;DHT22;27926;48.062;7.474;2023-03-13T08:51:06;17.00;99.90
42261;DHT22;27926;48.062;7.474;2023-03-13T08:53:31;17.00;99.90
42261;DHT22;27926;48.062;7.474;2023-03-13T08:55:56;17.00;99.90
42261;DHT22;27926;48.062;7.474;2023-03-13T08:58:20;17.00;99.90
42261;DHT22;27926;48.062;7.474;2023-03-13T09:00:45;16.90;99.90
42261;DHT22;27926;48.062;7.474;2023-03-13T09:03:09;17.00;99.90
42261;DHT22;27926;48.062;7.474;2023-03-13T09:05:38;17.00;99.90
42261;DHT22;27926;48.062;7.474;2023-03-13T09:08:02;16.90;99.90
42261;DHT22;27926;48.062;7.474;2023-03-13T09:10:27;16.80;99.90
42261;DHT22;27926;48.062;7.474;2023-03-13T09:12:51;16.80;99.90
42261;DHT22;27926;48.062;7.474;2023-03-13T09:15:16;16.70;99.90
42261;DHT22;27926;48.062;7.474;2023-03-13T09:17:40;16.70;99.90
42261;DHT22;27926;48.062;7.474;2023-03-13T09:20:05;16.80;99.90
42261;DHT22;27926;48.062;7.474;2023-03-13T09:22:31;17.00;99.90
42261;DHT22;27926;48.062;7.474;2023-03-13T09:24:55;17.10;99.90
42261;DHT22;27926;48.062;7.474;2023-03-13T09:27:19;17.10;99.90
42261;DHT22;27926;48.062;7.474;2023-03-13T09:29:44;17.20;99.90
42261;DHT22;27926;48.062;7.474;2023-03-13T09:32:09;17.60;99.90
42261;DHT22;27926;48.062;7.474;2023-03-13T09:34:33;18.00;99.90
42261;DHT22;27926;48.062;7.474;2023-03-13T09:36:58;18.60;99.90
42261;DHT22;27926;48.062;7.474;2023-03-13T09:39:22;19.00;99.90
42261;DHT22;27926;48.062;7.474;2023-03-13T09:41:53;19.30;99.80
42261;DHT22;27926;48.062;7.474;2023-03-13T09:44:35;19.30;99.80
42261;DHT22;27926;48.062;7.474;2023-03-13T09:49:30;19.20;99.90
42261;DHT22;27926;48.062;7.474;2023-03-13T09:52:01;19.10;99.90
42261;DHT22;27926;48.062;7.474;2023-03-13T09:54:34;19.00;99.90
42261;DHT22;27926;48.062;7.474;2023-03-13T09:57:02;19.10;99.90
42261;DHT22;27926;48.062;7.474;2023-03-13T09:59:31;19.00;99.90
42261;DHT22;27926;48.062;7.474;2023-03-13T10:01:59;19.00;99.90
42261;DHT22;27926;48.062;7.474;2023-03-13T10:04:28;18.70;99.90
42261;DHT22;27926;48.062;7.474;2023-03-13T10:06:53;18.60;99.90
42261;DHT22;27926;48.062;7.474;2023-03-13T10:09:30;18.50;99.90
42261;DHT22;27926;48.062;7.474;2023-03-13T10:11:59;18.30;99.90
42261;DHT22;27926;48.062;7.474;2023-03-13T10:14:30;18.30;99.90
42261;DHT22;27926;48.062;7.474;2023-03-13T10:16:59;18.20;99.90
42261;DHT22;27926;48.062;7.474;2023-03-13T10:19:30;18.10;99.90
42261;DHT22;27926;48.062;7.474;2023-03-13T10:21:55;18.10;99.90
42261;DHT22;27926;48.062;7.474;2023-03-13T10:26:47;18.20;99.90
42261;DHT22;27926;48.062;7.474;2023-03-13T10:29:22;18.10;99.90
42261;DHT22;27926;48.062;7.474;2023-03-13T10:31:50;18.10;99.90
42261;DHT22;27926;48.062;7.474;2023-03-13T10:34:17;18.20;99.90
42261;DHT22;27926;48.062;7.474;2023-03-13T10:36:46;18.10;99.90
42261;DHT22;27926;48.062;7.474;2023-03-13T10:39:18;18.10;99.90
42261;DHT22;27926;48.062;7.474;2023-03-13T10:41:43;18.30;99.90
42261;DHT22;27926;48.062;7.474;2023-03-13T10:44:14;18.50;99.90
42261;DHT22;27926;48.062;7.474;2023-03-13T10:46:40;18.80;99.90
42261;DHT22;27926;48.062;7.474;2023-03-13T10:49:10;18.90;99.50
42261;DHT22;27926;48.062;7.474;2023-03-13T10:51:39;19.10;99.60
42261;DHT22;27926;48.062;7.474;2023-03-13T10:54:12;19.20;99.60
42261;DHT22;27926;48.062;7.474;2023-03-13T10:56:36;19.30;99.60
42261;DHT22;27926;48.062;7.474;2023-03-13T10:59:01;19.30;99.50
42261;DHT22;27926;48.062;7.474;2023-03-13T11:01:26;19.40;99.60
42261;DHT22;27926;48.062;7.474;2023-03-13T11:03:55;19.60;98.80
42261;DHT22;27926;48.062;7.474;2023-03-13T11:06:33;19.80;98.20
42261;DHT22;27926;48.062;7.474;2023-03-13T11:09:02;19.80;98.20
42261;DHT22;27926;48.062;7.474;2023-03-13T11:11:27;19.80;98.30
42261;DHT22;27926;48.062;7.474;2023-03-13T11:13:54;19.80;98.50
42261;DHT22;27926;48.062;7.474;2023-03-13T11:16:20;20.00;98.50
42261;DHT22;27926;48.062;7.474;2023-03-13T11:21:31;20.00;98.10
42261;DHT22;27926;48.062;7.474;2023-03-13T11:23:58;20.00;98.00
42261;DHT22;27926;48.062;7.474;2023-03-13T11:26:41;20.00;98.30
42261;DHT22;27926;48.062;7.474;2023-03-13T11:29:16;20.10;98.60
42261;DHT22;27926;48.062;7.474;2023-03-13T11:31:50;20.20;97.50
42261;DHT22;27926;48.062;7.474;2023-03-13T11:34:38;20.20;97.30
42261;DHT22;27926;48.062;7.474;2023-03-13T11:37:13;20.10;97.30
42261;DHT22;27926;48.062;7.474;2023-03-13T11:44:57;20.40;97.20
42261;DHT22;27926;48.062;7.474;2023-03-13T11:55:49;20.60;96.50
42261;DHT22;27926;48.062;7.474;2023-03-13T11:59:06;20.60;96.80
42261;DHT22;27926;48.062;7.474;2023-03-13T12:01:09;20.80;96.40
42261;DHT22;27926;48.062;7.474;2023-03-13T12:03:39;20.90;96.10
42261;DHT22;27926;48.062;7.474;2023-03-13T12:06:06;21.10;96.20
42261;DHT22;27926;48.062;7.474;2023-03-13T12:08:38;21.20;95.80
42261;DHT22;27926;48.062;7.474;2023-03-13T12:13:30;21.20;95.50
42261;DHT22;27926;48.062;7.474;2023-03-13T12:15:57;21.20;95.70
42261;DHT22;27926;48.062;7.474;2023-03-13T12:20:55;21.30;95.70
42261;DHT22;27926;48.062;7.474;2023-03-13T12:26:20;21.60;95.30
42261;DHT22;27926;48.062;7.474;2023-03-13T12:31:32;22.00;94.80
42261;DHT22;27926;48.062;7.474;2023-03-13T12:41:43;21.90;94.50
42261;DHT22;27926;48.062;7.474;2023-03-13T12:44:09;22.00;94.60
42261;DHT22;27926;48.062;7.474;2023-03-13T12:54:00;21.90;94.60
42261;DHT22;27926;48.062;7.474;2023-03-13T12:58:58;21.90;94.20
42261;DHT22;27926;48.062;7.474;2023-03-13T13:01:28;22.00;94.40
42261;DHT22;27926;48.062;7.474;2023-03-13T13:03:57;22.00;94.70
42261;DHT22;27926;48.062;7.474;2023-03-13T13:06:23;22.20;94.60
42261;DHT22;27926;48.062;7.474;2023-03-13T13:14:01;22.40;93.70
42261;DHT22;27926;48.062;7.474;2023-03-13T13:16:26;22.50;93.40
42261;DHT22;27926;48.062;7.474;2023-03-13T13:18:51;22.60;92.90
42261;DHT22;27926;48.062;7.474;2023-03-13T13:21:19;22.60;92.70
42261;DHT22;27926;48.062;7.474;2023-03-13T13:23:45;22.50;92.90
42261;DHT22;27926;48.062;7.474;2023-03-13T13:28:49;22.60;92.90
42261;DHT22;27926;48.062;7.474;2023-03-13T13:33:57;22.80;92.60
42261;DHT22;27926;48.062;7.474;2023-03-13T13:36:26;22.90;92.20
42261;DHT22;27926;48.062;7.474;2023-03-13T13:38:51;22.90;92.10
42261;DHT22;27926;48.062;7.474;2023-03-13T13:43:41;22.70;92.10
42261;DHT22;27926;48.062;7.474;2023-03-13T13:48:39;22.60;92.30
42261;DHT22;27926;48.062;7.474;2023-03-13T13:53:56;22.80;92.50
42261;DHT22;27926;48.062;7.474;2023-03-13T13:56:41;22.70;91.80
42261;DHT22;27926;48.062;7.474;2023-03-13T14:01:44;22.60;92.40
42261;DHT22;27926;48.062;7.474;2023-03-13T14:04:10;22.40;92.30
42261;DHT22;27926;48.062;7.474;2023-03-13T14:06:36;22.20;92.80
42261;DHT22;27926;48.062;7.474;2023-03-13T14:09:13;22.10;92.70
42261;DHT22;27926;48.062;7.474;2023-03-13T14:11:43;22.10;92.60
42261;DHT22;27926;48.062;7.474;2023-03-13T14:14:08;22.20;92.80
42261;DHT22;27926;48.062;7.474;2023-03-13T14:16:33;22.20;92.80
42261;DHT22;27926;48.062;7.474;2023-03-13T14:18:57;22.40;92.00
42261;DHT22;27926;48.062;7.474;2023-03-13T14:21:22;22.70;91.40
42261;DHT22;27926;48.062;7.474;2023-03-13T14:23:47;22.80;90.90
42261;DHT22;27926;48.062;7.474;2023-03-13T14:28:37;22.90;90.30
42261;DHT22;27926;48.062;7.474;2023-03-13T14:31:02;22.90;90.20
42261;DHT22;27926;48.062;7.474;2023-03-13T14:33:29;23.00;90.60
42261;DHT22;27926;48.062;7.474;2023-03-13T14:35:54;23.00;90.00
42261;DHT22;27926;48.062;7.474;2023-03-13T14:38:22;22.90;90.00
42261;DHT22;27926;48.062;7.474;2023-03-13T14:40:46;22.90;90.20
42261;DHT22;27926;48.062;7.474;2023-03-13T14:43:31;22.80;90.00
42261;DHT22;27926;48.062;7.474;2023-03-13T14:45:55;22.80;90.10
42261;DHT22;27926;48.062;7.474;2023-03-13T14:48:21;22.80;90.00
42261;DHT22;27926;48.062;7.474;2023-03-13T14:50:47;22.70;90.00
42261;DHT22;27926;48.062;7.474;2023-03-13T14:53:16;22.70;90.20
42261;DHT22;27926;48.062;7.474;2023-03-13T14:55:41;22.60;89.80
42261;DHT22;27926;48.062;7.474;2023-03-13T14:58:23;22.70;90.10
42261;DHT22;27926;48.062;7.474;2023-03-13T15:00:48;22.70;90.10
42261;DHT22;27926;48.062;7.474;2023-03-13T15:05:39;22.80;90.00
42261;DHT22;27926;48.062;7.474;2023-03-13T15:08:09;22.70;89.60
42261;DHT22;27926;48.062;7.474;2023-03-13T15:10:35;22.60;89.90
42261;DHT22;27926;48.062;7.474;2023-03-13T15:13:12;22.60;89.80
42261;DHT22;27926;48.062;7.474;2023-03-13T15:15:37;22.50;89.60
42261;DHT22;27926;48.062;7.474;2023-03-13T15:18:16;22.50;89.80
42261;DHT22;27926;48.062;7.474;2023-03-13T15:20:41;22.60;90.00
42261;DHT22;27926;48.062;7.474;2023-03-13T15:23:07;22.80;89.60
42261;DHT22;27926;48.062;7.474;2023-03-13T15:25:32;22.90;89.90
42261;DHT22;27926;48.062;7.474;2023-03-13T15:27:57;22.80;89.50
42261;DHT22;27926;48.062;7.474;2023-03-13T15:30:21;22.80;89.30
42261;DHT22;27926;48.062;7.474;2023-03-13T15:32:46;22.90;89.20
42261;DHT22;27926;48.062;7.474;2023-03-13T15:37:48;22.90;88.30
42261;DHT22;27926;48.062;7.474;2023-03-13T15:40:13;22.70;88.50
42261;DHT22;27926;48.062;7.474;2023-03-13T15:42:38;22.60;88.90
42261;DHT22;27926;48.062;7.474;2023-03-13T15:45:03;22.60;88.30
42261;DHT22;27926;48.062;7.474;2023-03-13T15:47:28;22.60;88.80
42261;DHT22;27926;48.062;7.474;2023-03-13T15:49:52;22.40;88.70
42261;DHT22;27926;48.062;7.474;2023-03-13T15:52:18;22.40;89.50
42261;DHT22;27926;48.062;7.474;2023-03-13T15:54:43;22.30;89.20
42261;DHT22;27926;48.062;7.474;2023-03-13T15:57:09;22.20;88.70
42261;DHT22;27926;48.062;7.474;2023-03-13T15:59:34;22.10;89.40
42261;DHT22;27926;48.062;7.474;2023-03-13T16:01:59;21.90;90.00
42261;DHT22;27926;48.062;7.474;2023-03-13T16:04:23;21.70;90.20
42261;DHT22;27926;48.062;7.474;2023-03-13T16:06:48;21.60;90.40
42261;DHT22;27926;48.062;7.474;2023-03-13T16:09:12;21.50;90.50
42261;DHT22;27926;48.062;7.474;2023-03-13T16:11:37;21.40;90.70
42261;DHT22;27926;48.062;7.474;2023-03-13T16:14:01;21.40;90.60
42261;DHT22;27926;48.062;7.474;2023-03-13T16:16:27;21.40;90.40
42261;DHT22;27926;48.062;7.474;2023-03-13T16:18:53;21.30;90.50
42261;DHT22;27926;48.062;7.474;2023-03-13T16:21:22;21.20;90.70
42261;DHT22;27926;48.062;7.474;2023-03-13T16:23:50;21.20;91.00
42261;DHT22;27926;48.062;7.474;2023-03-13T16:26:18;21.10;91.00
42261;DHT22;27926;48.062;7.474;2023-03-13T16:28:43;21.00;91.00
42261;DHT22;27926;48.062;7.474;2023-03-13T16:31:28;20.90;90.90
42261;DHT22;27926;48.062;7.474;2023-03-13T16:33:53;20.80;91.30
42261;DHT22;27926;48.062;7.474;2023-03-13T16:36:19;20.70;91.40
42261;DHT22;27926;48.062;7.474;2023-03-13T16:38:44;20.60;91.50
42261;DHT22;27926;48.062;7.474;2023-03-13T16:41:11;20.50;91.70
42261;DHT22;27926;48.062;7.474;2023-03-13T16:43:36;20.40;91.80
42261;DHT22;27926;48.062;7.474;2023-03-13T16:46:01;20.30;92.00